Time;durP1;ratioP1;P1;durP2;ratioP2;P2;SDS_P1;SDS_P2;PMS_P1;PMS_P2;Temp;Humidity;BMP_temperature;BMP_pressure;BME280_temperature;BME280_humidity;BME280_pressure;Samples;Min_cycle;Max_cycle;Signal;HPM_P1;HPM_P2
2022/06/21 00:03:48;;;;;;;0.00;0.00;;;;;;;11.21;100.00;101470.69;10396629;28;20528;-75
2022/06/21 00:08:49;;;;;;;0.05;0.05;;;;;;;11.19;100.00;101462.00;10392507;28;20030;-76
2022/06/21 00:13:50;;;;;;;0.10;0.10;;;;;;;11.14;100.00;101466.91;10386034;28;20041;-76
2022/06/21 00:18:51;;;;;;;0.00;0.00;;;;;;;11.18;100.00;101463.81;10400069;28;20030;-76
2022/06/21 00:23:54;;;;;;;0.10;0.10;;;;;;;11.23;100.00;101474.91;10393557;28;20790;-76
2022/06/21 00:28:54;;;;;;;0.10;0.10;;;;;;;11.21;100.00;101471.53;10399509;28;20108;-76
2022/06/21 00:33:56;;;;;;;0.00;0.00;;;;;;;11.23;100.00;101468.72;10388577;28;20108;-75
2022/06/21 00:38:59;;;;;;;0.10;0.10;;;;;;;11.25;100.00;101475.56;10385090;28;20084;-76
2022/06/21 00:44:03;;;;;;;0.00;0.00;;;;;;;11.22;100.00;101475.88;10390147;28;20289;-75
2022/06/21 00:49:11;;;;;;;0.00;0.00;;;;;;;11.23;100.00;101482.91;10400156;28;20400;-75
2022/06/21 00:54:21;;;;;;;0.00;0.00;;;;;;;11.24;100.00;101476.56;10383827;28;20061;-74
2022/06/21 00:59:29;;;;;;;0.10;0.10;;;;;;;11.23;100.00;101479.41;10402884;28;20083;-75
2022/06/21 01:04:35;;;;;;;0.10;0.10;;;;;;;11.12;100.00;101476.91;10403991;28;20369;-75
2022/06/21 01:09:42;;;;;;;0.10;0.10;;;;;;;11.09;100.00;101483.38;10398402;28;20029;-76
2022/06/21 01:14:50;;;;;;;0.10;0.10;;;;;;;11.02;100.00;101471.59;10394317;28;20498;-75
2022/06/21 01:19:56;;;;;;;0.10;0.10;;;;;;;10.97;100.00;101480.06;10378748;28;20025;-75
2022/06/21 01:25:09;;;;;;;0.10;0.10;;;;;;;10.95;100.00;101486.50;10396275;28;20365;-76
2022/06/21 01:30:10;;;;;;;0.10;0.10;;;;;;;10.87;100.00;101481.91;10372333;28;20034;-75
2022/06/21 01:35:33;;;;;;;0.10;0.10;;;;;;;10.86;100.00;101483.72;10386794;28;20041;-75
2022/06/21 01:40:41;;;;;;;0.10;0.10;;;;;;;10.82;100.00;101487.69;10388168;28;20044;-76
2022/06/21 01:45:51;;;;;;;0.10;0.10;;;;;;;10.81;100.00;101483.31;10405743;28;20161;-76
2022/06/21 01:50:59;;;;;;;0.10;0.10;;;;;;;10.77;100.00;101484.59;10391032;28;20025;-75
2022/06/21 01:56:05;;;;;;;0.00;0.00;;;;;;;10.79;100.00;101482.66;10390578;28;20432;-76
2022/06/21 02:01:12;;;;;;;0.00;0.00;;;;;;;10.81;100.00;101474.50;10380321;28;20033;-76
2022/06/21 02:06:15;;;;;;;0.00;0.00;;;;;;;10.79;100.00;101468.44;10382020;28;20046;-75
2022/06/21 02:11:21;;;;;;;0.10;0.10;;;;;;;10.78;100.00;101464.13;10383818;28;20503;-77
2022/06/21 02:16:22;;;;;;;0.10;0.10;;;;;;;10.73;100.00;101461.88;10391041;28;20092;-76
2022/06/21 02:21:42;;;;;;;0.10;0.10;;;;;;;10.71;100.00;101463.88;10383422;28;20025;-76
2022/06/21 02:26:42;;;;;;;0.00;0.00;;;;;;;10.73;100.00;101461.88;10389066;28;20030;-76
2022/06/21 02:31:44;;;;;;;0.00;0.00;;;;;;;10.68;100.00;101469.47;10384540;28;20028;-76
2022/06/21 02:36:51;;;;;;;0.10;0.10;;;;;;;10.61;100.00;101473.69;10387957;28;20377;-76
2022/06/21 02:41:57;;;;;;;0.00;0.00;;;;;;;10.55;100.00;101480.44;10388240;28;20026;-77
2022/06/21 02:47:08;;;;;;;0.00;0.00;;;;;;;10.52;100.00;101478.06;10381448;28;20479;-77
2022/06/21 02:52:34;;;;;;;0.00;0.00;;;;;;;10.49;100.00;101469.50;10391977;28;20030;-76
2022/06/21 02:57:44;;;;;;;0.00;0.00;;;;;;;10.50;100.00;101463.19;10374725;28;20030;-77
2022/06/21 03:02:45;;;;;;;0.00;0.00;;;;;;;10.51;100.00;101473.72;10390866;28;20104;-77
2022/06/21 03:07:53;;;;;;;0.00;0.00;;;;;;;10.55;100.00;101479.59;10401798;28;20132;-76
2022/06/21 03:13:03;;;;;;;0.00;0.00;;;;;;;10.67;100.00;101477.59;10391522;28;20435;-76
2022/06/21 03:18:08;;;;;;;0.00;0.00;;;;;;;11.12;100.00;101471.59;10386850;28;20480;-78
2022/06/21 03:23:13;;;;;;;0.00;0.00;;;;;;;11.73;100.00;101471.78;10389104;28;20069;-76
2022/06/21 03:28:45;;;;;;;;;;;;;;;12.38;100.00;101468.91;10417298;28;20071;-76
2022/06/21 03:33:49;;;;;;;0.10;0.10;;;;;;;13.25;100.00;101472.47;10372290;28;19913;-76
2022/06/21 03:38:59;;;;;;;0.10;0.10;;;;;;;14.10;100.00;101484.88;10397375;28;20029;-76
2022/06/21 03:44:03;;;;;;;0.10;0.10;;;;;;;14.92;100.00;101493.72;10393045;28;20105;-77
2022/06/21 03:49:20;;;;;;;0.10;0.10;;;;;;;15.80;100.00;101495.44;10381100;28;20056;-76
2022/06/21 03:54:31;;;;;;;0.10;0.10;;;;;;;16.63;100.00;101491.91;10386103;28;20113;-74
2022/06/21 03:59:36;;;;;;;0.10;0.10;;;;;;;17.55;100.00;101510.41;10378724;28;20488;-75
2022/06/21 04:04:47;;;;;;;0.10;0.10;;;;;;;18.47;99.24;101507.06;10377852;28;20030;-76
2022/06/21 04:09:56;;;;;;;0.10;0.10;;;;;;;19.41;94.16;101511.22;10388544;28;20316;-76
2022/06/21 04:15:17;;;;;;;0.10;0.10;;;;;;;20.23;88.08;101504.81;10414165;28;20117;-75
2022/06/21 04:20:26;;;;;;;0.10;0.10;;;;;;;21.08;83.22;101504.16;10389045;28;20511;-76
2022/06/21 04:25:29;;;;;;;0.00;0.00;;;;;;;21.87;76.39;101503.84;10382939;28;20030;-75
2022/06/21 04:30:35;;;;;;;0.00;0.00;;;;;;;22.51;72.40;101503.84;10391499;28;20029;-75
2022/06/21 04:35:40;;;;;;;0.00;0.00;;;;;;;23.06;70.05;101509.41;10378729;28;20497;-75
2022/06/21 04:40:53;;;;;;;0.00;0.00;;;;;;;23.57;68.03;101497.31;10376729;28;20370;-76
2022/06/21 04:46:01;;;;;;;0.00;0.00;;;;;;;24.09;64.85;101500.38;10386880;28;20042;-76
2022/06/21 04:51:06;;;;;;;0.00;0.00;;;;;;;24.58;63.14;101509.25;10376193;28;20040;-76
2022/06/21 04:56:18;;;;;;;0.10;0.10;;;;;;;24.84;60.17;101507.94;10373605;28;20053;-75
2022/06/21 05:01:29;;;;;;;0.10;0.10;;;;;;;25.15;60.51;101503.19;10384946;28;20052;-76
2022/06/21 05:06:30;;;;;;;0.10;0.10;;;;;;;25.63;57.06;101518.38;10371248;28;20017;-76
2022/06/21 05:11:31;;;;;;;0.10;0.10;;;;;;;26.00;54.50;101515.25;10370050;28;20042;-75
2022/06/21 05:16:40;;;;;;;0.03;0.03;;;;;;;26.40;53.75;101501.47;10371425;28;20502;-75
2022/06/21 05:21:56;;;;;;;0.10;0.10;;;;;;;26.99;52.31;101511.94;10371912;28;20484;-76
2022/06/21 05:27:14;;;;;;;0.10;0.10;;;;;;;27.26;50.71;101508.50;10371654;28;20066;-75
2022/06/21 05:32:19;;;;;;;0.10;0.10;;;;;;;27.56;49.22;101521.72;10372194;28;20079;-75
2022/06/21 05:37:34;;;;;;;0.10;0.10;;;;;;;27.76;49.52;101515.66;10379949;28;20587;-75
2022/06/21 05:42:34;;;;;;;0.10;0.10;;;;;;;27.87;48.08;101517.44;10372361;28;20113;-76
2022/06/21 05:47:42;;;;;;;0.10;0.10;;;;;;;27.83;47.98;101520.94;10377892;28;20044;-75
2022/06/21 05:52:50;;;;;;;0.10;0.10;;;;;;;27.25;48.79;101525.97;10379019;28;20034;-76
2022/06/21 05:57:59;;;;;;;0.10;0.10;;;;;;;26.46;51.37;101518.78;10383006;28;20392;-75
2022/06/21 06:03:33;;;;;;;0.10;0.10;;;;;;;25.52;52.15;101527.41;10396152;28;20444;-76
2022/06/21 06:08:38;;;;;;;0.10;0.10;;;;;;;24.18;54.97;101530.81;10391531;28;20432;-76
2022/06/21 06:13:41;;;;;;;0.10;0.10;;;;;;;22.95;58.51;101531.88;10409948;28;20037;-77
2022/06/21 06:19:01;;;;;;;0.00;0.00;;;;;;;21.21;66.41;101537.47;10396686;28;20029;-77
2022/06/21 06:24:17;;;;;;;0.00;0.00;;;;;;;20.30;71.14;101535.44;10401337;28;20519;-76
2022/06/21 06:29:31;;;;;;;0.00;0.00;;;;;;;19.78;74.23;101538.81;10398857;28;20026;-77
2022/06/21 06:34:35;;;;;;;0.05;0.05;;;;;;;21.48;69.60;101538.25;10396234;28;20029;-77
2022/06/21 06:39:37;;;;;;;0.00;0.00;;;;;;;22.95;60.16;101531.88;10386404;28;20034;-77
2022/06/21 06:44:44;;;;;;;0.00;0.00;;;;;;;23.53;56.88;101542.31;10388473;28;20217;-77
2022/06/21 06:50:03;;;;;;;0.00;0.00;;;;;;;22.77;62.10;101530.75;10395209;28;20030;-77
2022/06/21 06:55:28;;;;;;;0.10;0.10;;;;;;;24.51;59.26;101546.66;10385567;28;20061;-77
2022/06/21 07:00:35;;;;;;;0.10;0.10;;;;;;;25.41;54.82;101547.34;10403660;28;20499;-77
2022/06/21 07:05:44;;;;;;;0.00;0.00;;;;;;;24.89;55.47;101556.25;10372487;28;20041;-77
2022/06/21 07:10:47;;;;;;;0.00;0.00;;;;;;;24.68;52.88;101554.13;10402842;28;20038;-77
2022/06/21 07:15:49;;;;;;;0.00;0.00;;;;;;;24.44;52.77;101545.09;10367656;28;20113;-77
2022/06/21 07:20:49;;;;;;;0.10;0.10;;;;;;;24.04;56.83;101537.50;10370446;28;20092;-77
2022/06/21 07:25:55;;;;;;;0.10;0.10;;;;;;;23.94;54.13;101536.19;10368094;28;20483;-77
2022/06/21 07:31:01;;;;;;;0.10;0.10;;;;;;;24.10;56.10;101523.78;10366927;28;20034;-77
2022/06/21 07:36:24;;;;;;;0.00;0.00;;;;;;;23.88;55.72;101531.66;10367428;28;20033;-77
2022/06/21 07:41:27;;;;;;;0.00;0.00;;;;;;;24.36;59.29;101533.44;10366028;28;20440;-73
2022/06/21 07:46:37;;;;;;;0.32;0.30;;;;;;;24.57;57.66;101532.09;10371969;28;20041;-73
2022/06/21 07:51:45;;;;;;;0.00;0.00;;;;;;;24.66;56.11;101538.00;10374863;28;20101;-72
2022/06/21 07:57:08;;;;;;;0.10;0.10;;;;;;;24.61;55.92;101529.75;10372022;28;20034;-73
2022/06/21 08:07:42;;;;;;;0.10;0.10;;;;;;;25.21;55.08;101545.84;10399851;28;20041;-73
2022/06/21 08:12:43;;;;;;;0.10;0.10;;;;;;;25.00;56.67;101538.25;10408410;28;20061;-73
2022/06/21 08:17:50;;;;;;;0.10;0.10;;;;;;;25.74;52.73;101554.84;10375438;28;20542;-73
2022/06/21 08:23:22;;;;;;;0.00;0.00;;;;;;;25.96;53.13;101544.94;10373770;28;20443;-73
2022/06/21 08:28:25;;;;;;;;;;;;;;;26.10;51.07;101542.75;10373024;28;20575;-72
2022/06/21 08:33:37;;;;;;;0.00;0.00;;;;;;;25.51;51.46;101540.22;10371273;28;19914;-73
2022/06/21 08:38:46;;;;;;;0.10;0.10;;;;;;;25.95;52.37;101550.66;10373579;28;20037;-73
2022/06/21 08:44:08;;;;;;;0.05;0.05;;;;;;;25.99;49.99;101554.53;10371956;28;20022;-73
2022/06/21 08:49:38;;;;;;;;;;;;;;;25.31;50.62;101550.72;10387712;28;20030;-73
2022/06/21 08:55:04;;;;;;;0.00;0.00;;;;;;;25.67;52.76;101559.63;10372447;28;19913;-73
2022/06/21 09:00:18;;;;;;;0.00;0.00;;;;;;;26.08;50.27;101564.00;10368694;28;20029;-73
2022/06/21 09:05:59;;;;;;;0.10;0.10;;;;;;;25.68;52.47;101573.00;10406959;28;20030;-73
2022/06/21 09:11:28;;;;;;;0.10;0.10;;;;;;;25.39;53.83;101561.22;10372074;28;20116;-73
2022/06/21 09:16:46;;;;;;;0.00;0.00;;;;;;;25.73;51.70;101558.66;10373579;28;20191;-72
2022/06/21 09:22:22;;;;;;;0.00;0.00;;;;;;;25.61;51.82;101571.50;10373037;28;20089;-72
2022/06/21 09:27:46;;;;;;;0.00;0.00;;;;;;;25.22;53.16;101563.03;10379252;28;20041;-73
2022/06/21 09:33:11;;;;;;;0.00;0.00;;;;;;;25.08;53.76;101570.63;10377822;28;20030;-73
2022/06/21 09:38:21;;;;;;;0.00;0.00;;;;;;;25.23;54.40;101562.81;10371297;28;20355;-73
2022/06/21 09:43:28;;;;;;;0.08;0.08;;;;;;;25.77;52.60;101576.19;10369124;28;20033;-73
2022/06/21 09:48:43;;;;;;;0.10;0.10;;;;;;;25.12;53.09;101571.78;10372831;28;20428;-73
2022/06/21 09:54:16;;;;;;;0.00;0.00;;;;;;;24.74;56.18;101567.63;10367843;28;20034;-73
2022/06/21 09:59:40;;;;;;;0.00;0.00;;;;;;;24.40;55.72;101556.44;10381384;28;20044;-73
2022/06/21 10:05:21;;;;;;;0.03;0.03;;;;;;;24.11;57.11;101563.53;10378285;28;20129;-73
2022/06/21 10:10:27;;;;;;;;;;;;;;;24.55;54.61;101568.78;10382661;28;20059;-73
2022/06/21 10:15:47;;;;;;;0.10;0.10;;;;;;;24.62;54.95;101564.91;10384070;28;19969;-73
2022/06/21 10:21:26;;;;;;;0.10;0.10;;;;;;;23.63;56.69;101564.38;10383918;28;20049;-73
2022/06/21 10:26:49;;;;;;;0.10;0.10;;;;;;;23.11;56.10;101571.25;10399314;28;20056;-74
2022/06/21 10:31:49;;;;;;;0.10;0.10;;;;;;;23.47;56.29;101565.84;10407563;28;20037;-74
2022/06/21 10:36:55;;;;;;;0.10;0.10;;;;;;;23.10;56.82;101548.69;10404348;28;20120;-73
2022/06/21 10:47:42;;;;;;;0.00;0.00;;;;;;;24.00;58.40;101545.31;10366702;28;20029;-73
2022/06/21 10:53:09;;;;;;;0.00;0.00;;;;;;;22.87;60.86;101546.56;10366787;28;20105;-73
2022/06/21 10:58:44;;;;;;;0.00;0.00;;;;;;;23.09;59.49;101538.03;10365707;28;20033;-73
2022/06/21 11:04:11;;;;;;;0.08;0.08;;;;;;;23.20;62.25;101529.94;10389101;28;20026;-73
2022/06/21 11:09:21;;;;;;;0.00;0.00;;;;;;;22.64;61.80;101516.50;10371827;28;20042;-73
2022/06/21 11:14:50;;;;;;;0.10;0.10;;;;;;;22.02;63.81;101530.72;10365501;28;20382;-73
2022/06/21 11:20:02;;;;;;;0.08;0.08;;;;;;;22.86;61.82;101512.28;10378186;28;20025;-73
2022/06/21 11:25:15;;;;;;;0.00;0.00;;;;;;;23.22;58.76;101521.59;10380661;23;20058;-90
2022/06/21 11:30:26;;;;;;;0.00;0.00;;;;;;;23.26;58.69;101511.91;10323665;28;20035;-92
2022/06/21 11:35:41;;;;;;;0.00;0.00;;;;;;;23.61;58.19;101511.28;10318166;28;20482;-91
2022/06/21 11:40:57;;;;;;;0.00;0.00;;;;;;;23.59;62.54;101511.53;10328856;28;20533;-93
2022/06/21 11:46:25;;;;;;;0.00;0.00;;;;;;;23.38;62.09;101520.97;10335453;28;20418;-91
2022/06/21 11:52:13;;;;;;;0.00;0.00;;;;;;;22.77;64.44;101502.78;10329384;28;20030;-92
2022/06/21 11:57:39;;;;;;;0.00;0.00;;;;;;;22.98;59.86;101499.69;10339414;28;20050;-92
2022/06/21 12:03:03;;;;;;;0.00;0.00;;;;;;;22.85;63.16;101507.09;10345151;28;20105;-92
2022/06/21 12:08:08;;;;;;;0.00;0.00;;;;;;;22.77;64.72;101505.50;10322439;28;20034;-91
2022/06/21 12:13:42;;;;;;;0.00;0.00;;;;;;;22.53;62.92;101507.19;10323560;28;20030;-92
2022/06/21 12:18:51;;;;;;;0.00;0.00;;;;;;;22.51;62.76;101490.28;10344650;28;20045;-91
2022/06/21 12:24:16;;;;;;;0.00;0.00;;;;;;;22.07;65.65;101503.72;10318437;28;20022;-92
2022/06/21 12:29:19;;;;;;;0.00;0.00;;;;;;;22.17;63.56;101497.88;10320169;28;20403;-91
2022/06/21 12:34:28;;;;;;;0.10;0.10;;;;;;;22.30;63.92;101491.50;10337791;28;20279;-92
2022/06/21 12:39:31;;;;;;;0.00;0.00;;;;;;;22.06;64.52;101487.69;10322036;28;20269;-91
2022/06/21 12:44:36;;;;;;;0.00;0.00;;;;;;;21.93;67.48;101497.59;10343277;28;20036;-91
2022/06/21 12:50:07;;;;;;;0.10;0.10;;;;;;;21.96;66.15;101482.72;10326921;28;20497;-91
2022/06/21 12:55:28;;;;;;;0.10;0.10;;;;;;;21.93;66.09;101472.31;10321464;28;20479;-89
2022/06/21 13:00:51;;;;;;;0.00;0.00;;;;;;;21.87;68.53;101470.47;10324501;28;20057;-91
2022/06/21 13:06:00;;;;;;;;;;;;;;;21.77;69.12;101465.53;10320499;28;20121;-91
2022/06/21 13:11:03;;;;;;;0.00;0.00;;;;;;;21.68;67.39;101467.69;10319872;28;20438;-90
2022/06/21 13:16:38;;;;;;;0.00;0.00;;;;;;;21.90;67.49;101462.75;10328464;28;20117;-91
2022/06/21 13:22:00;;;;;;;0.00;0.00;;;;;;;22.16;67.02;101452.75;10318828;28;20030;-91
2022/06/21 13:27:19;;;;;;;0.00;0.00;;;;;;;22.15;64.53;101459.22;10316869;28;20030;-91
2022/06/21 13:32:25;;;;;;;0.00;0.00;;;;;;;22.28;67.60;101450.19;10317902;28;20426;-92
2022/06/21 13:37:36;;;;;;;0.08;0.08;;;;;;;22.10;66.04;101430.03;10319611;28;20092;-91
2022/06/21 13:42:55;;;;;;;0.00;0.00;;;;;;;21.97;64.95;101449.16;10316301;28;20037;-92
2022/06/21 13:48:09;;;;;;;0.00;0.00;;;;;;;21.81;67.80;101441.53;10319063;28;20045;-91
2022/06/21 13:53:40;;;;;;;0.00;0.00;;;;;;;21.89;68.26;101423.13;10318776;28;20707;-92
2022/06/21 13:58:46;;;;;;;0.00;0.00;;;;;;;21.54;69.21;101433.56;10314019;28;20395;-91
2022/06/21 14:03:56;;;;;;;0.00;0.00;;;;;;;21.56;66.06;101423.34;10318090;28;20577;-90
2022/06/21 14:09:02;;;;;;;0.00;0.00;;;;;;;21.59;68.50;101431.03;10334399;28;20058;-92
2022/06/21 14:14:34;;;;;;;0.00;0.00;;;;;;;21.24;68.41;101444.09;10318306;28;20046;-92
2022/06/21 14:19:56;;;;;;;0.00;0.00;;;;;;;21.40;68.73;101432.78;10319091;28;20034;-91
2022/06/21 14:25:03;;;;;;;0.00;0.00;;;;;;;21.37;68.74;101421.56;10317627;28;20031;-91
2022/06/21 14:30:17;;;;;;;0.00;0.00;;;;;;;21.30;68.21;101410.72;10315806;28;20406;-91
2022/06/21 14:35:21;;;;;;;0.00;0.00;;;;;;;21.16;68.60;101412.66;10319857;28;20042;-90
2022/06/21 14:40:53;;;;;;;0.00;0.00;;;;;;;21.23;69.87;101408.06;10318469;28;20495;-91
2022/06/21 14:46:12;;;;;;;0.00;0.00;;;;;;;21.27;68.61;101399.50;10303231;28;20042;-91
2022/06/21 14:51:25;;;;;;;0.00;0.00;;;;;;;21.35;67.68;101401.94;10323072;28;20034;-91
2022/06/21 14:57:03;;;;;;;0.00;0.00;;;;;;;21.51;66.90;101411.50;10360795;28;20449;-91
2022/06/21 15:02:28;;;;;;;0.10;0.10;;;;;;;21.55;67.55;101413.53;10353999;28;20092;-91
2022/06/21 15:07:47;;;;;;;0.00;0.00;;;;;;;21.35;67.57;101401.94;10364523;28;20516;-91
2022/06/21 15:13:05;;;;;;;0.00;0.00;;;;;;;21.15;68.28;101389.34;10364753;28;20030;-91
2022/06/21 15:18:20;;;;;;;0.03;0.03;;;;;;;20.94;69.46;101395.03;10364588;28;20040;-91
2022/06/21 15:23:29;;;;;;;0.00;0.00;;;;;;;20.69;69.56;101373.28;10340879;28;20575;-90
2022/06/21 15:28:30;;;;;;;0.00;0.00;;;;;;;20.80;69.43;101396.97;10325949;28;20045;-90
2022/06/21 15:33:48;;;;;;;0.10;0.10;;;;;;;20.79;69.59;101379.88;10323168;28;20043;-90
2022/06/21 15:38:58;;;;;;;0.10;0.10;;;;;;;20.64;71.34;101387.44;10323639;28;20573;-90
2022/06/21 15:44:20;;;;;;;0.00;0.00;;;;;;;20.29;71.41;101392.25;10322490;28;20034;-90
2022/06/21 15:54:47;;;;;;;0.03;0.03;;;;;;;20.30;72.12;101383.94;10351931;28;20034;-91
2022/06/21 16:00:01;;;;;;;0.00;0.00;;;;;;;20.28;72.44;101394.13;10324373;28;20137;-91
2022/06/21 16:05:23;;;;;;;0.10;0.10;;;;;;;20.31;72.72;101387.47;10327107;28;20468;-90
2022/06/21 16:10:28;;;;;;;0.10;0.10;;;;;;;20.23;72.81;101384.97;10322647;28;20058;-91
2022/06/21 16:15:32;;;;;;;0.10;0.10;;;;;;;19.85;72.65;101391.84;10321806;28;20042;-91
2022/06/21 16:20:42;;;;;;;0.10;0.10;;;;;;;19.76;74.06;101384.97;10329697;28;20406;-92
2022/06/21 16:25:53;;;;;;;0.00;0.00;;;;;;;19.67;73.34;101383.50;10323186;28;20053;-92
2022/06/21 16:37:26;;;;;;;0.10;0.10;;;;;;;19.58;73.32;101382.00;10216445;29;20412;-90
2022/06/21 16:48:20;;;;;;;0.00;0.00;;;;;;;19.38;74.38;101385.50;10409743;22;20081;-73
2022/06/21 16:53:29;;;;;;;0.10;0.10;;;;;;;19.54;72.29;101378.03;10403879;28;20060;-73
2022/06/21 16:58:40;;;;;;;0.00;0.00;;;;;;;19.69;70.64;101373.31;10412789;28;20022;-73
2022/06/21 17:03:51;;;;;;;0.00;0.00;;;;;;;19.63;65.75;101371.41;10412139;28;20038;-73
2022/06/21 17:09:10;;;;;;;0.00;0.00;;;;;;;19.44;67.08;101360.34;10413227;28;20057;-73
2022/06/21 17:14:11;;;;;;;0.00;0.00;;;;;;;19.21;68.20;101343.69;10410418;28;20037;-73
2022/06/21 17:19:40;;;;;;;0.10;0.10;;;;;;;19.14;66.82;101349.06;10411887;28;20297;-73
2022/06/21 17:24:52;;;;;;;0.00;0.00;;;;;;;19.07;70.29;101359.00;10425807;22;20140;-74
2022/06/21 17:30:19;;;;;;;0.00;0.00;;;;;;;19.01;67.11;101367.91;10415331;28;20087;-74
2022/06/21 17:35:27;;;;;;;0.10;0.10;;;;;;;18.98;70.12;101373.72;10411272;28;20041;-74
2022/06/21 17:40:30;;;;;;;0.10;0.10;;;;;;;18.79;65.96;101369.88;10414478;28;20041;-74
2022/06/21 17:45:38;;;;;;;0.10;0.10;;;;;;;18.59;63.80;101360.81;10413565;28;20029;-73
2022/06/21 17:50:47;;;;;;;0.10;0.10;;;;;;;18.35;64.43;101373.75;10414348;28;20052;-74
2022/06/21 17:55:54;;;;;;;0.10;0.10;;;;;;;18.16;65.25;101372.59;10413670;28;20037;-74
2022/06/21 18:00:59;;;;;;;0.03;0.03;;;;;;;17.99;71.09;101368.50;10414068;28;20116;-74
2022/06/21 18:06:03;;;;;;;0.10;0.10;;;;;;;17.76;73.99;101368.69;10411632;28;20188;-74
2022/06/21 18:11:17;;;;;;;0.10;0.10;;;;;;;17.57;71.92;101354.84;10412716;28;20100;-74
2022/06/21 18:16:51;;;;;;;0.10;0.10;;;;;;;17.47;72.16;101348.94;10411384;28;20037;-74
2022/06/21 18:22:07;;;;;;;0.03;0.03;;;;;;;17.27;75.82;101354.09;10411671;28;20179;-74
2022/06/21 18:27:34;;;;;;;0.10;0.10;;;;;;;17.06;78.61;101348.69;10410882;28;20034;-74
2022/06/21 18:32:56;;;;;;;0.10;0.10;;;;;;;16.85;80.93;101346.78;10411001;28;20055;-74
2022/06/21 18:38:16;;;;;;;0.10;0.10;;;;;;;16.70;81.99;101339.53;10409532;28;20033;-74
2022/06/21 18:43:19;;;;;;;0.10;0.10;;;;;;;16.52;82.49;101344.44;10414847;28;20029;-74
2022/06/21 18:48:50;;;;;;;0.10;0.10;;;;;;;16.39;83.05;101346.94;10409111;28;20435;-74
2022/06/21 18:54:10;;;;;;;0.10;0.10;;;;;;;16.19;82.66;101347.47;10410201;28;20758;-74
2022/06/21 18:59:14;;;;;;;0.10;0.10;;;;;;;16.02;81.70;101349.47;10410665;28;20048;-73
2022/06/21 19:08:28;;;;;;;0.10;0.10;;;;;;;15.82;82.81;101351.88;10409589;28;20056;-73
2022/06/21 19:10:07;;;;;;;0.10;0.10;;;;;;;15.68;83.09;101347.28;10405844;28;20099;-73
2022/06/21 19:15:16;;;;;;;0.00;0.00;;;;;;;15.53;84.16;101354.41;10405279;28;20119;-74
2022/06/21 19:20:26;;;;;;;0.10;0.10;;;;;;;15.38;85.46;101359.69;10409692;28;20025;-73
2022/06/21 19:25:45;;;;;;;0.10;0.10;;;;;;;15.23;87.21;101342.69;10407239;28;20069;-73
2022/06/21 19:31:23;;;;;;;0.10;0.10;;;;;;;15.07;88.28;101347.16;10409264;28;20038;-73
2022/06/21 19:36:50;;;;;;;0.10;0.10;;;;;;;14.91;89.16;101345.38;10408982;28;20056;-74
2022/06/21 19:41:59;;;;;;;0.10;0.10;;;;;;;14.77;90.21;101353.31;10411683;28;20029;-74
2022/06/21 19:47:06;;;;;;;0.10;0.10;;;;;;;14.64;91.73;101353.88;10416022;28;20045;-74
2022/06/21 19:52:38;;;;;;;0.10;0.10;;;;;;;14.52;92.35;101358.78;10415034;28;20029;-74
2022/06/21 19:57:41;;;;;;;0.20;0.20;;;;;;;14.43;92.91;101371.31;10416123;28;20033;-74
2022/06/21 20:02:46;;;;;;;0.10;0.10;;;;;;;14.31;93.91;101378.06;10414645;28;20025;-74
2022/06/21 20:07:55;;;;;;;0.10;0.10;;;;;;;14.12;95.92;101387.28;10413684;28;20040;-74
2022/06/21 20:13:08;;;;;;;0.20;0.20;;;;;;;14.00;99.10;101393.97;10422031;28;20389;-74
2022/06/21 20:18:15;;;;;;;0.10;0.10;;;;;;;14.02;100.00;101398.19;10414817;28;20377;-74
2022/06/21 20:23:25;;;;;;;0.03;0.03;;;;;;;13.99;100.00;101392.28;10429813;28;20373;-74
2022/06/21 20:28:31;;;;;;;0.10;0.10;;;;;;;13.90;100.00;101399.50;10416622;28;20046;-74
2022/06/21 20:33:47;;;;;;;0.10;0.10;;;;;;;13.73;100.00;101405.84;10413688;28;20038;-74
2022/06/21 20:38:52;;;;;;;0.10;0.10;;;;;;;13.53;100.00;101403.47;10428511;28;20480;-74
2022/06/21 20:43:59;;;;;;;0.10;0.10;;;;;;;13.35;100.00;101408.09;10413820;28;20392;-74
2022/06/21 20:49:05;;;;;;;0.10;0.10;;;;;;;13.27;100.00;101419.63;10414957;28;20060;-74
2022/06/21 20:54:08;;;;;;;0.10;0.10;;;;;;;13.22;100.00;101421.09;10412788;28;20037;-74
2022/06/21 20:59:44;;;;;;;0.10;0.10;;;;;;;13.12;100.00;101419.38;10413801;28;20485;-74
2022/06/21 21:05:06;;;;;;;0.10;0.10;;;;;;;12.68;100.00;101421.31;10408722;28;20037;-73
2022/06/21 21:10:25;;;;;;;0.10;0.10;;;;;;;12.20;100.00;101428.88;10405814;28;20431;-74
2022/06/21 21:15:33;;;;;;;0.03;0.03;;;;;;;12.04;100.00;101419.88;10374348;28;20034;-74
2022/06/21 21:20:42;;;;;;;0.10;0.10;;;;;;;11.96;100.00;101418.00;10380607;28;20476;-74
2022/06/21 21:25:49;;;;;;;0.10;0.10;;;;;;;11.95;100.00;101419.81;10392779;28;20026;-74
2022/06/21 21:31:10;;;;;;;0.10;0.10;;;;;;;11.97;100.00;101414.31;10444261;28;20082;-74
2022/06/21 21:36:18;;;;;;;0.10;0.10;;;;;;;11.79;100.00;101399.13;10443387;28;20037;-74
2022/06/21 21:41:21;;;;;;;0.10;0.10;;;;;;;11.62;100.00;101393.78;10379716;28;20116;-74
2022/06/21 21:46:25;;;;;;;0.10;0.10;;;;;;;11.44;100.00;101402.63;10370359;28;20030;-74
2022/06/21 21:51:28;;;;;;;;;;;;;;;11.45;100.00;101406.13;10371825;28;20061;-74
2022/06/21 21:56:32;;;;;;;0.00;0.00;;;;;;;11.54;100.00;101410.53;10368901;28;20016;-74
2022/06/21 22:01:37;;;;;;;0.10;0.10;;;;;;;11.41;100.00;101415.44;10405796;28;20029;-74
2022/06/21 22:07:09;;;;;;;0.00;0.00;;;;;;;11.23;100.00;101397.56;10410037;28;20412;-74
2022/06/21 22:12:22;;;;;;;0.00;0.00;;;;;;;11.11;100.00;101393.41;10389573;28;20034;-74
2022/06/21 22:17:28;;;;;;;0.10;0.10;;;;;;;10.95;100.00;101398.56;10369040;28;20034;-74
2022/06/21 22:22:48;;;;;;;0.00;0.00;;;;;;;10.84;100.00;101402.25;10370113;28;20033;-74
2022/06/21 22:27:52;;;;;;;0.00;0.00;;;;;;;10.71;100.00;101410.56;10368575;28;20038;-74
2022/06/21 22:32:53;;;;;;;0.10;0.10;;;;;;;10.27;100.00;101412.94;10369152;28;20088;-74
2022/06/21 22:37:54;;;;;;;0.05;0.05;;;;;;;9.92;100.00;101397.53;10379341;28;20026;-74
2022/06/21 22:42:55;;;;;;;0.00;0.00;;;;;;;9.80;100.00;101385.34;10373127;28;20025;-74
2022/06/21 22:48:00;;;;;;;0.00;0.00;;;;;;;9.80;100.00;101398.63;10365760;28;20034;-74
2022/06/21 22:53:05;;;;;;;0.10;0.10;;;;;;;9.80;100.00;101388.81;10367346;28;20026;-74
2022/06/21 22:58:10;;;;;;;0.10;0.10;;;;;;;9.68;100.00;101382.81;10367496;28;20046;-74
2022/06/21 23:03:29;;;;;;;0.10;0.10;;;;;;;9.55;100.00;101378.75;10366110;28;20042;-73
2022/06/21 23:08:40;;;;;;;0.00;0.00;;;;;;;9.53;100.00;101382.38;10372554;28;20362;-74
2022/06/21 23:13:44;;;;;;;0.00;0.00;;;;;;;9.51;100.00;101383.50;10370521;28;20052;-74
2022/06/21 23:18:45;;;;;;;0.00;0.00;;;;;;;9.45;100.00;101371.63;10383832;28;20087;-74
2022/06/21 23:23:46;;;;;;;0.00;0.00;;;;;;;9.41;100.00;101380.84;10414623;28;20071;-74
2022/06/21 23:28:47;;;;;;;0.10;0.10;;;;;;;9.37;100.00;101378.59;10396970;22;20361;-77
2022/06/21 23:33:47;;;;;;;0.00;0.00;;;;;;;9.30;100.00;101383.63;10370006;28;20026;-77
2022/06/21 23:38:55;;;;;;;0.00;0.00;;;;;;;9.17;100.00;101385.69;10371099;28;20120;-76
2022/06/21 23:43:57;;;;;;;0.00;0.00;;;;;;;9.06;100.00;101386.66;10382747;28;20049;-77
2022/06/21 23:49:04;;;;;;;0.00;0.00;;;;;;;8.90;100.00;101389.81;10370951;28;20032;-76
2022/06/21 23:54:06;;;;;;;0.00;0.00;;;;;;;8.66;100.00;101386.63;10370125;28;20044;-77
2022/06/21 23:59:09;;;;;;;0.00;0.00;;;;;;;8.64;100.00;101381.47;10370411;28;20038;-77
